createdAt,value
2022-12-11T00:00:22.298Z,4.47
2022-12-11T00:02:49.527Z,2.30
2022-12-11T00:05:16.422Z,2.27
2022-12-11T00:07:43.412Z,2.13
2022-12-11T00:10:10.208Z,3.60
2022-12-11T00:12:36.979Z,2.27
2022-12-11T00:15:04.049Z,4.27
2022-12-11T00:17:30.905Z,3.17
2022-12-11T00:19:57.723Z,3.07
2022-12-11T00:22:24.526Z,3.33
2022-12-11T00:24:51.807Z,3.70
2022-12-11T00:27:18.631Z,2.00
2022-12-11T00:29:45.468Z,2.30
2022-12-11T00:32:12.305Z,1.97
2022-12-11T00:34:39.216Z,2.33
2022-12-11T00:37:05.966Z,2.33
2022-12-11T00:39:32.777Z,2.37
2022-12-11T00:41:59.629Z,3.13
2022-12-11T00:44:26.419Z,2.87
2022-12-11T00:46:53.196Z,2.63
2022-12-11T00:49:19.923Z,2.17
2022-12-11T00:51:46.758Z,2.77
2022-12-11T00:54:13.534Z,1.97
2022-12-11T00:56:40.232Z,2.53
2022-12-11T00:59:07.066Z,1.93
2022-12-11T01:01:33.828Z,2.37
2022-12-11T01:04:00.722Z,2.17
2022-12-11T01:06:27.920Z,1.80
2022-12-11T01:09:13.753Z,2.57
2022-12-11T01:11:40.696Z,2.13
2022-12-11T01:14:07.566Z,3.40
2022-12-11T01:16:34.357Z,1.83
2022-12-11T01:19:01.063Z,1.73
2022-12-11T01:21:27.871Z,1.87
2022-12-11T01:23:54.658Z,2.00
2022-12-11T01:26:21.652Z,1.50
2022-12-11T01:28:51.539Z,1.70
2022-12-11T01:31:19.082Z,1.70
2022-12-11T01:33:45.869Z,1.73
2022-12-11T01:36:18.071Z,1.17
2022-12-11T01:38:45.996Z,1.83
2022-12-11T01:41:13.333Z,1.70
2022-12-11T01:44:03.280Z,1.80
2022-12-11T01:46:30.578Z,1.33
2022-12-11T01:48:57.629Z,3.17
2022-12-11T01:51:24.863Z,1.30
2022-12-11T01:54:00.823Z,2.10
2022-12-11T01:56:28.195Z,1.63
2022-12-11T01:58:56.517Z,1.23
2022-12-11T02:01:55.367Z,1.50
2022-12-11T02:04:22.133Z,2.17
2022-12-11T02:06:50.371Z,1.47
2022-12-11T02:09:36.492Z,1.70
2022-12-11T02:12:18.408Z,3.17
2022-12-11T02:15:03.625Z,2.10
2022-12-11T02:17:44.343Z,2.30
2022-12-11T02:20:39.031Z,1.55
2022-12-11T02:23:11.680Z,1.27
2022-12-11T02:25:53.363Z,1.10
2022-12-11T02:28:30.343Z,1.47
2022-12-11T02:31:12.428Z,1.63
2022-12-11T02:33:50.259Z,1.50
2022-12-11T02:36:18.170Z,1.50
2022-12-11T02:38:50.509Z,2.60
2022-12-11T02:41:18.488Z,1.33
2022-12-11T02:43:45.422Z,0.77
2022-12-11T02:46:12.242Z,0.97
2022-12-11T02:48:39.187Z,0.90
2022-12-11T02:51:06.212Z,1.13
2022-12-11T02:53:33.072Z,1.57
2022-12-11T02:56:06.307Z,1.43
2022-12-11T02:58:33.195Z,1.77
2022-12-11T03:01:00.134Z,0.93
2022-12-11T03:03:28.682Z,1.33
2022-12-11T03:05:55.784Z,0.93
2022-12-11T03:08:22.665Z,1.47
2022-12-11T03:10:49.588Z,2.40
2022-12-11T03:13:18.370Z,2.27
2022-12-11T03:16:22.991Z,1.57
2022-12-11T03:19:15.900Z,1.33
2022-12-11T03:21:59.150Z,1.77
2022-12-11T03:24:32.055Z,1.43
2022-12-11T03:27:01.160Z,1.90
2022-12-11T03:29:39.581Z,2.00
2022-12-11T03:32:09.925Z,1.43
2022-12-11T03:34:58.472Z,1.52
2022-12-11T03:37:26.256Z,1.70
2022-12-11T03:39:55.661Z,1.67
2022-12-11T03:42:22.480Z,2.50
2022-12-11T03:44:50.123Z,2.23
2022-12-11T03:47:18.802Z,2.57
2022-12-11T03:49:45.648Z,1.80
2022-12-11T03:52:12.926Z,2.07
2022-12-11T03:54:40.303Z,2.87
2022-12-11T03:57:07.256Z,2.03
2022-12-11T03:59:34.065Z,2.00
2022-12-11T04:02:01.099Z,2.70
2022-12-11T04:04:28.112Z,2.50
2022-12-11T04:06:54.949Z,2.63
2022-12-11T04:09:21.710Z,3.10
2022-12-11T04:11:48.479Z,3.33
2022-12-11T04:14:33.755Z,3.03
2022-12-11T04:17:00.885Z,5.93
2022-12-11T04:19:46.243Z,2.47
2022-12-11T04:22:32.603Z,4.47
2022-12-11T04:24:59.826Z,2.73
2022-12-11T04:27:45.048Z,4.03
2022-12-11T04:30:15.477Z,2.93
2022-12-11T04:32:42.345Z,4.45
2022-12-11T04:35:09.764Z,3.60
2022-12-11T04:37:36.818Z,3.60
2022-12-11T04:40:05.290Z,3.50
2022-12-11T04:42:32.064Z,3.87
2022-12-11T04:44:58.886Z,4.60
2022-12-11T04:47:25.649Z,3.80
2022-12-11T04:49:52.389Z,4.13
2022-12-11T04:52:19.205Z,3.13
2022-12-11T04:54:46.529Z,5.30
2022-12-11T04:57:13.397Z,4.13
2022-12-11T04:59:40.294Z,6.23
2022-12-11T05:02:07.109Z,9.10
2022-12-11T05:04:34.394Z,9.17
2022-12-11T05:07:01.569Z,9.27
2022-12-11T05:09:28.402Z,6.93
2022-12-11T05:11:55.273Z,4.77
2022-12-11T05:14:22.176Z,4.90
2022-12-11T05:16:49.008Z,4.10
2022-12-11T05:19:15.775Z,5.23
2022-12-11T05:21:42.495Z,4.07
2022-12-11T05:24:09.319Z,4.50
2022-12-11T05:26:36.170Z,3.20
2022-12-11T05:29:03.116Z,4.67
2022-12-11T05:31:29.973Z,4.50
2022-12-11T05:33:56.729Z,4.80
2022-12-11T05:36:28.081Z,6.17
2022-12-11T05:38:54.984Z,6.53
2022-12-11T05:41:23.359Z,6.87
2022-12-11T05:43:50.151Z,6.70
2022-12-11T05:46:18.826Z,6.13
2022-12-11T05:48:46.656Z,6.23
2022-12-11T05:51:13.955Z,5.23
2022-12-11T05:53:41.125Z,5.63
2022-12-11T05:56:10.900Z,6.70
2022-12-11T05:58:38.178Z,5.87
2022-12-11T06:01:12.946Z,5.67
2022-12-11T06:03:39.731Z,5.63
2022-12-11T06:06:06.988Z,8.93
2022-12-11T06:08:33.911Z,7.53
2022-12-11T06:11:00.833Z,7.40
2022-12-11T06:13:27.598Z,5.03
2022-12-11T06:15:54.411Z,6.50
2022-12-11T06:18:21.191Z,5.83
2022-12-11T06:20:47.937Z,6.23
2022-12-11T06:23:14.710Z,8.10
2022-12-11T06:25:41.482Z,6.40
2022-12-11T06:28:08.441Z,8.27
2022-12-11T06:30:37.364Z,10.33
2022-12-11T06:33:06.771Z,6.90
2022-12-11T06:35:40.061Z,6.57
2022-12-11T06:38:08.804Z,7.00
2022-12-11T06:40:35.600Z,7.87
2022-12-11T06:43:02.371Z,8.73
2022-12-11T06:45:29.227Z,7.70
2022-12-11T06:47:56.154Z,8.00
2022-12-11T06:50:22.984Z,6.50
2022-12-11T06:52:49.770Z,6.93
2022-12-11T06:55:16.684Z,7.13
2022-12-11T06:57:43.487Z,20.40
2022-12-11T07:00:10.975Z,12.47
2022-12-11T07:02:37.744Z,19.33
2022-12-11T07:05:05.074Z,11.57
2022-12-11T07:07:31.860Z,33.40
2022-12-11T07:10:04.086Z,11.37
2022-12-11T07:12:34.316Z,13.53
2022-12-11T07:15:01.104Z,11.53
2022-12-11T07:17:28.904Z,12.67
2022-12-11T07:19:56.024Z,12.07
2022-12-11T07:22:22.780Z,9.73
2022-12-11T07:24:49.552Z,12.00
2022-12-11T07:27:16.290Z,11.23
2022-12-11T07:29:43.100Z,13.77
2022-12-11T07:32:10.013Z,24.50
2022-12-11T07:34:37.048Z,34.03
2022-12-11T07:37:03.901Z,20.17
2022-12-11T07:39:30.655Z,14.63
2022-12-11T07:41:57.479Z,12.70
2022-12-11T07:44:24.321Z,10.53
2022-12-11T07:46:51.137Z,11.17
2022-12-11T07:49:17.919Z,13.73
2022-12-11T07:51:44.816Z,13.67
2022-12-11T07:54:16.617Z,12.63
2022-12-11T07:56:51.312Z,13.43
2022-12-11T07:59:21.081Z,16.80
2022-12-11T08:01:47.959Z,16.83
2022-12-11T08:04:15.854Z,15.47
2022-12-11T08:06:43.127Z,42.17
2022-12-11T08:09:15.999Z,42.53
2022-12-11T08:11:49.399Z,90.20
2022-12-11T08:14:16.228Z,31.37
2022-12-11T08:16:44.215Z,36.75
2022-12-11T08:19:12.363Z,22.90
2022-12-11T08:21:39.943Z,17.02
2022-12-11T08:24:06.932Z,24.00
2022-12-11T08:26:33.693Z,29.42
2022-12-11T08:29:01.036Z,27.70
2022-12-11T08:31:27.840Z,29.55
2022-12-11T08:33:55.476Z,29.27
2022-12-11T08:36:22.938Z,23.33
2022-12-11T08:38:50.345Z,23.23
2022-12-11T08:41:23.546Z,25.52
2022-12-11T08:43:54.803Z,23.95
2022-12-11T08:46:23.805Z,28.25
2022-12-11T08:48:50.720Z,24.75
2022-12-11T08:51:20.868Z,19.08
2022-12-11T08:53:47.604Z,20.08
2022-12-11T08:56:16.449Z,20.77
2022-12-11T08:58:43.722Z,20.75
2022-12-11T09:01:24.516Z,20.25
2022-12-11T09:03:51.898Z,17.15
2022-12-11T09:06:20.466Z,20.35
2022-12-11T09:08:52.256Z,19.40
2022-12-11T09:11:24.607Z,13.15
2022-12-11T09:13:51.392Z,18.05
2022-12-11T09:16:19.138Z,14.65
2022-12-11T09:18:47.195Z,13.13
2022-12-11T09:21:15.348Z,21.25
2022-12-11T09:23:44.400Z,16.08
2022-12-11T09:26:12.997Z,16.17
2022-12-11T09:28:44.375Z,17.77
2022-12-11T09:31:18.138Z,19.60
2022-12-11T09:33:45.282Z,15.13
2022-12-11T09:36:12.130Z,19.17
2022-12-11T09:38:39.017Z,21.45
2022-12-11T09:41:20.849Z,15.27
2022-12-11T09:43:52.094Z,15.25
2022-12-11T09:46:20.782Z,18.10
2022-12-11T09:48:50.346Z,18.42
2022-12-11T09:51:29.098Z,18.90
2022-12-11T09:53:56.940Z,14.68
2022-12-11T09:56:33.202Z,15.00
2022-12-11T09:59:05.590Z,19.23
2022-12-11T10:02:06.360Z,20.17
2022-12-11T10:04:54.702Z,22.23
2022-12-11T10:07:43.919Z,29.48
2022-12-11T10:10:17.426Z,28.48
2022-12-11T10:12:50.416Z,22.40
2022-12-11T10:15:30.245Z,31.55
2022-12-11T10:18:02.938Z,29.05
2022-12-11T10:20:36.417Z,13.73
2022-12-11T10:23:03.606Z,11.52
2022-12-11T10:25:41.440Z,16.42
2022-12-11T10:28:15.084Z,17.15
2022-12-11T10:30:49.869Z,24.23
2022-12-11T10:33:27.245Z,17.58
2022-12-11T10:35:55.007Z,20.02
2022-12-11T10:38:32.334Z,20.60
2022-12-11T10:41:03.953Z,14.13
2022-12-11T10:43:37.744Z,20.60
2022-12-11T10:46:06.551Z,48.28
2022-12-11T10:48:33.695Z,19.65
2022-12-11T10:51:02.842Z,14.43
2022-12-11T10:53:29.804Z,18.70
2022-12-11T10:55:58.578Z,13.98
2022-12-11T10:58:34.472Z,15.10
2022-12-11T11:01:11.137Z,13.50
2022-12-11T11:03:52.804Z,12.82
2022-12-11T11:06:20.632Z,12.40
2022-12-11T11:09:00.760Z,12.85
2022-12-11T11:11:33.908Z,14.97
2022-12-11T11:14:17.038Z,12.90
2022-12-11T11:16:48.158Z,10.10
2022-12-11T11:19:19.045Z,11.10
2022-12-11T11:21:53.511Z,12.63
2022-12-11T11:24:47.201Z,16.15
2022-12-11T11:27:43.790Z,20.02
2022-12-11T11:30:30.249Z,11.32
2022-12-11T11:33:00.660Z,12.63
2022-12-11T11:35:28.606Z,10.65
2022-12-11T11:38:00.554Z,12.75
2022-12-11T11:40:34.559Z,13.10
2022-12-11T11:43:10.012Z,12.50
2022-12-11T11:45:41.819Z,15.32
2022-12-11T11:48:17.791Z,8.75
2022-12-11T11:50:46.119Z,13.80
2022-12-11T11:53:24.281Z,10.02
2022-12-11T11:56:22.015Z,12.20
2022-12-11T11:58:51.948Z,9.05
2022-12-11T12:01:19.568Z,8.27
2022-12-11T12:03:47.001Z,12.00
2022-12-11T12:06:26.984Z,11.55
2022-12-11T12:09:21.164Z,17.83
2022-12-11T12:11:57.623Z,19.20
2022-12-11T12:14:51.823Z,19.80
2022-12-11T12:17:40.564Z,15.38
2022-12-11T12:20:10.583Z,22.42
2022-12-11T12:23:00.525Z,20.03
2022-12-11T12:25:35.007Z,16.80
2022-12-11T12:28:20.693Z,14.82
2022-12-11T12:31:08.502Z,14.05
2022-12-11T12:34:16.184Z,13.18
2022-12-11T12:36:48.734Z,14.23
2022-12-11T12:39:21.360Z,13.80
2022-12-11T12:42:07.026Z,11.48
2022-12-11T12:45:12.777Z,8.85
2022-12-11T12:47:40.081Z,10.00
2022-12-11T12:50:12.153Z,24.45
2022-12-11T12:52:39.535Z,19.13
2022-12-11T12:55:25.928Z,24.60
2022-12-11T12:57:57.624Z,56.95
2022-12-11T13:00:37.803Z,39.90
2022-12-11T13:03:21.797Z,16.27
2022-12-11T13:06:12.799Z,14.15
2022-12-11T13:08:46.416Z,11.93
2022-12-11T13:11:14.135Z,11.20
2022-12-11T13:13:42.780Z,10.70
2022-12-11T13:16:15.670Z,15.88
2022-12-11T13:18:43.679Z,13.15
2022-12-11T13:21:32.116Z,14.88
2022-12-11T13:24:14.005Z,13.95
2022-12-11T13:26:40.956Z,15.63
2022-12-11T13:29:31.431Z,16.75
2022-12-11T13:32:03.428Z,10.30
2022-12-11T13:34:33.784Z,12.88
2022-12-11T13:37:00.610Z,17.05
2022-12-11T13:39:29.889Z,13.18
2022-12-11T13:42:09.970Z,13.23
2022-12-11T13:44:40.718Z,13.70
2022-12-11T13:47:12.900Z,16.60
2022-12-11T13:49:42.417Z,17.88
2022-12-11T13:52:19.867Z,13.35
2022-12-11T13:54:51.619Z,12.05
2022-12-11T13:57:23.103Z,15.10
2022-12-11T13:59:54.148Z,11.13
2022-12-11T14:05:16.351Z,14.45
2022-12-11T14:07:46.943Z,16.52
2022-12-11T14:10:22.544Z,13.05
2022-12-11T14:13:02.573Z,16.02
2022-12-11T14:15:30.143Z,16.75
2022-12-11T14:17:57.087Z,13.98
2022-12-11T14:20:31.833Z,12.48
2022-12-11T14:23:20.786Z,12.32
2022-12-11T14:25:57.554Z,11.60
2022-12-11T14:28:27.607Z,11.65
2022-12-11T14:30:59.273Z,13.87
2022-12-11T14:33:32.932Z,16.87
2022-12-11T14:35:59.818Z,19.38
2022-12-11T14:38:27.503Z,17.52
2022-12-11T14:40:56.786Z,14.53
2022-12-11T14:43:32.772Z,16.75
2022-12-11T14:46:01.957Z,19.73
2022-12-11T14:48:39.302Z,15.93
2022-12-11T14:51:07.535Z,21.05
2022-12-11T14:53:42.091Z,20.08
2022-12-11T14:56:09.611Z,17.55
2022-12-11T14:58:51.729Z,19.58
2022-12-11T15:01:32.924Z,18.20
2022-12-11T15:04:15.386Z,22.60
2022-12-11T15:06:46.653Z,27.17
2022-12-11T15:09:28.045Z,36.78
2022-12-11T15:11:56.975Z,31.37
2022-12-11T15:14:24.099Z,24.90
2022-12-11T15:16:51.135Z,22.88
2022-12-11T15:19:46.944Z,21.03
2022-12-11T15:22:13.738Z,21.85
2022-12-11T15:24:41.934Z,24.88
2022-12-11T15:27:36.804Z,19.73
2022-12-11T15:30:16.045Z,18.83
2022-12-11T15:32:42.834Z,16.53
2022-12-11T15:35:23.810Z,14.77
2022-12-11T15:37:54.862Z,16.73
2022-12-11T15:40:21.792Z,21.90
2022-12-11T15:42:48.650Z,19.60
2022-12-11T15:45:17.125Z,26.20
2022-12-11T15:47:44.170Z,34.53
2022-12-11T15:50:31.903Z,29.67
2022-12-11T15:52:58.696Z,30.80
2022-12-11T15:55:27.164Z,29.05
2022-12-11T15:57:58.580Z,24.27
2022-12-11T16:00:27.504Z,17.80
2022-12-11T16:02:55.113Z,29.13
2022-12-11T16:05:21.870Z,23.95
2022-12-11T16:07:49.162Z,34.85
2022-12-11T16:10:17.515Z,24.92
2022-12-11T16:12:44.305Z,20.55
2022-12-11T16:15:14.382Z,19.58
2022-12-11T16:17:43.154Z,22.52
2022-12-11T16:20:10.615Z,17.70
2022-12-11T16:22:37.359Z,14.70
2022-12-11T16:25:04.471Z,15.63
2022-12-11T16:27:31.350Z,15.32
2022-12-11T16:29:58.149Z,17.87
2022-12-11T16:32:24.991Z,21.70
2022-12-11T16:34:51.865Z,19.43
2022-12-11T16:37:18.684Z,21.10
2022-12-11T16:39:46.879Z,21.85
2022-12-11T16:42:13.730Z,19.07
2022-12-11T16:44:43.951Z,18.70
2022-12-11T16:47:11.030Z,16.42
2022-12-11T16:49:37.797Z,20.30
2022-12-11T16:52:04.850Z,19.17
2022-12-11T16:54:31.677Z,21.03
2022-12-11T16:56:58.439Z,23.53
2022-12-11T16:59:25.268Z,25.83
2022-12-11T17:01:52.320Z,72.47
2022-12-11T17:04:19.278Z,35.93
2022-12-11T17:06:46.449Z,27.63
2022-12-11T17:09:13.224Z,28.67
2022-12-11T17:11:40.039Z,33.67
2022-12-11T17:14:06.783Z,38.33
2022-12-11T17:16:34.119Z,35.73
2022-12-11T17:19:01.858Z,37.23
2022-12-11T17:21:28.612Z,64.95
2022-12-11T17:23:55.384Z,36.28
2022-12-11T17:26:22.170Z,31.40
2022-12-11T17:28:49.020Z,35.53
2022-12-11T17:31:17.195Z,35.93
2022-12-11T17:33:44.696Z,30.63
2022-12-11T17:36:13.733Z,30.97
2022-12-11T17:38:40.735Z,30.30
2022-12-11T17:41:08.343Z,39.37
2022-12-11T17:43:35.179Z,36.53
2022-12-11T17:46:01.961Z,30.17
2022-12-11T17:48:28.732Z,33.17
2022-12-11T17:50:55.508Z,30.97
2022-12-11T17:53:22.698Z,30.07
2022-12-11T17:55:49.795Z,34.50
2022-12-11T17:58:18.453Z,31.97
2022-12-11T18:00:46.241Z,32.17
2022-12-11T18:03:14.888Z,29.37
2022-12-11T18:05:48.299Z,44.33
2022-12-11T18:08:16.341Z,32.37
2022-12-11T18:10:43.350Z,36.23
2022-12-11T18:13:10.242Z,43.20
2022-12-11T18:15:37.268Z,42.83
2022-12-11T18:18:04.919Z,50.80
2022-12-11T18:20:32.422Z,47.17
2022-12-11T18:22:59.319Z,36.77
2022-12-11T18:25:26.075Z,42.13
2022-12-11T18:27:55.095Z,53.70
2022-12-11T18:30:22.888Z,44.27
2022-12-11T18:32:49.951Z,48.20
2022-12-11T18:35:17.066Z,38.87
2022-12-11T18:37:43.875Z,44.83
2022-12-11T18:40:12.109Z,35.03
2022-12-11T18:42:39.010Z,28.50
2022-12-11T18:45:06.977Z,37.90
2022-12-11T18:47:33.710Z,28.40
2022-12-11T18:50:05.803Z,25.50
2022-12-11T18:52:34.347Z,22.10
2022-12-11T18:55:01.162Z,26.70
2022-12-11T18:57:27.932Z,25.40
2022-12-11T18:59:54.788Z,30.47
2022-12-11T19:02:21.949Z,27.10
2022-12-11T19:04:51.331Z,31.00
2022-12-11T19:07:18.162Z,26.13
2022-12-11T19:09:48.068Z,27.10
2022-12-11T19:12:15.311Z,26.83
2022-12-11T19:14:42.072Z,44.67
2022-12-11T19:17:08.865Z,35.97
2022-12-11T19:19:36.017Z,28.33
2022-12-11T19:22:03.129Z,31.80
2022-12-11T19:24:30.035Z,33.33
2022-12-11T19:26:56.965Z,32.23
2022-12-11T19:29:25.636Z,31.70
2022-12-11T19:31:52.560Z,38.37
2022-12-11T19:34:19.368Z,50.93
2022-12-11T19:36:46.298Z,38.47
2022-12-11T19:39:14.413Z,25.33
2022-12-11T19:41:41.377Z,31.97
2022-12-11T19:44:08.166Z,26.53
2022-12-11T19:46:35.076Z,25.80
2022-12-11T19:49:02.168Z,28.30
2022-12-11T19:51:31.359Z,29.80
2022-12-11T19:53:59.220Z,28.67
2022-12-11T19:56:26.061Z,20.73
2022-12-11T19:58:52.859Z,24.60
2022-12-11T20:01:25.904Z,26.47
2022-12-11T20:03:53.450Z,28.17
2022-12-11T20:06:20.507Z,30.40
2022-12-11T20:08:47.548Z,31.03
2022-12-11T20:11:18.477Z,19.63
2022-12-11T20:13:46.825Z,22.33
2022-12-11T20:16:13.932Z,21.60
2022-12-11T20:18:40.946Z,25.17
2022-12-11T20:21:09.345Z,37.97
2022-12-11T20:23:36.338Z,32.27
2022-12-11T20:26:10.277Z,27.57
2022-12-11T20:28:37.033Z,28.87
2022-12-11T20:31:16.389Z,26.10
2022-12-11T20:33:46.579Z,15.87
2022-12-11T20:36:14.651Z,18.90
2022-12-11T20:38:41.742Z,16.93
2022-12-11T20:41:12.642Z,26.03
2022-12-11T20:43:39.535Z,38.88
2022-12-11T20:46:07.575Z,32.13
2022-12-11T20:48:34.652Z,26.70
2022-12-11T20:51:02.539Z,22.50
2022-12-11T20:53:31.755Z,31.27
2022-12-11T20:55:58.587Z,16.90
2022-12-11T20:58:28.408Z,16.03
2022-12-11T21:00:55.336Z,16.67
2022-12-11T21:03:22.131Z,15.73
2022-12-11T21:05:48.977Z,16.03
2022-12-11T21:08:15.913Z,15.10
2022-12-11T21:10:43.679Z,14.90
2022-12-11T21:13:10.504Z,15.60
2022-12-11T21:15:38.387Z,12.10
2022-12-11T21:18:08.119Z,15.20
2022-12-11T21:20:34.905Z,12.67
2022-12-11T21:23:02.221Z,13.60
2022-12-11T21:25:29.063Z,17.47
2022-12-11T21:27:55.831Z,18.03
2022-12-11T21:30:23.058Z,28.80
2022-12-11T21:32:49.882Z,27.27
2022-12-11T21:35:17.003Z,27.23
2022-12-11T21:37:47.232Z,31.73
2022-12-11T21:40:14.094Z,34.50
2022-12-11T21:42:40.943Z,43.60
2022-12-11T21:45:52.141Z,29.20
2022-12-11T21:47:54.697Z,39.20
2022-12-11T21:50:21.578Z,25.53
2022-12-11T21:52:48.419Z,21.37
2022-12-11T21:55:20.446Z,19.30
2022-12-11T21:57:47.193Z,19.80
2022-12-11T22:00:14.512Z,20.70
2022-12-11T22:02:41.545Z,21.07
2022-12-11T22:05:09.282Z,44.17
2022-12-11T22:07:36.330Z,31.70
2022-12-11T22:10:03.660Z,39.53
2022-12-11T22:12:30.508Z,35.27
2022-12-11T22:14:57.427Z,31.67
2022-12-11T22:17:24.584Z,28.00
2022-12-11T22:19:54.399Z,21.53
2022-12-11T22:22:21.207Z,27.47
2022-12-11T22:24:48.098Z,21.27
2022-12-11T22:27:19.071Z,19.47
2022-12-11T22:29:48.965Z,20.07
2022-12-11T22:32:15.806Z,19.07
2022-12-11T22:34:42.618Z,19.23
2022-12-11T22:37:09.431Z,21.13
2022-12-11T22:39:36.203Z,24.43
2022-12-11T22:42:03.343Z,23.33
2022-12-11T22:44:30.205Z,21.17
2022-12-11T22:46:57.412Z,19.47
2022-12-11T22:49:24.279Z,20.47
2022-12-11T22:51:51.030Z,22.57
2022-12-11T22:54:17.866Z,22.77
2022-12-11T22:56:44.749Z,22.80
2022-12-11T22:59:11.635Z,22.30
2022-12-11T23:01:38.374Z,22.53
2022-12-11T23:04:05.237Z,25.03
2022-12-11T23:06:32.018Z,23.77
2022-12-11T23:08:59.267Z,26.63
2022-12-11T23:11:28.725Z,24.63
2022-12-11T23:13:55.705Z,20.83
2022-12-11T23:16:23.179Z,18.90
2022-12-11T23:18:50.043Z,22.57
2022-12-11T23:21:16.780Z,21.23
2022-12-11T23:23:43.654Z,22.63
2022-12-11T23:26:12.220Z,22.67
2022-12-11T23:28:39.709Z,20.03
2022-12-11T23:31:06.583Z,21.07
2022-12-11T23:33:33.470Z,23.43
2022-12-11T23:36:00.320Z,23.57
2022-12-11T23:38:27.317Z,18.10
2022-12-11T23:40:54.105Z,22.30
2022-12-11T23:43:20.937Z,20.17
2022-12-11T23:45:47.919Z,20.57
2022-12-11T23:48:14.832Z,17.50
2022-12-11T23:50:42.032Z,18.53
2022-12-11T23:53:08.955Z,16.77
2022-12-11T23:55:35.767Z,15.53
2022-12-11T23:58:02.588Z,18.47
